createdAt,value
2022-08-20T00:01:50.361Z,86.76
2022-08-20T00:07:00.038Z,86.59
2022-08-20T00:12:08.995Z,86.44
2022-08-20T00:17:16.862Z,86.03
2022-08-20T00:22:24.520Z,86.25
2022-08-20T00:27:31.978Z,85.66
2022-08-20T00:32:48.656Z,85.90
2022-08-20T00:38:00.563Z,85.73
2022-08-20T00:43:27.366Z,86.01
2022-08-20T00:48:34.274Z,85.76
2022-08-20T00:53:42.559Z,85.64
2022-08-20T00:58:52.355Z,85.64
2022-08-20T01:03:59.717Z,85.74
2022-08-20T01:09:07.689Z,85.88
2022-08-20T01:14:31.836Z,86.02
2022-08-20T01:19:43.493Z,85.99
2022-08-20T01:24:55.174Z,86.04
2022-08-20T01:30:06.128Z,86.25
2022-08-20T01:35:14.014Z,86.26
2022-08-20T01:40:34.622Z,86.42
2022-08-20T01:45:41.935Z,86.28
2022-08-20T01:50:56.962Z,86.17
2022-08-20T01:56:04.256Z,86.32
2022-08-20T02:01:23.774Z,86.27
2022-08-20T02:06:33.268Z,86.16
2022-08-20T02:11:41.563Z,86.52
2022-08-20T02:16:54.969Z,86.76
2022-08-20T02:22:10.246Z,87.06
2022-08-20T02:27:19.089Z,87.34
2022-08-20T02:32:33.455Z,87.11
2022-08-20T02:37:43.720Z,87.30
2022-08-20T02:42:51.061Z,87.65
2022-08-20T02:47:59.515Z,87.57
2022-08-20T02:53:06.831Z,87.65
2022-08-20T02:58:14.280Z,88.00
2022-08-20T03:03:22.951Z,87.94
2022-08-20T03:08:30.641Z,87.96
2022-08-20T03:13:38.641Z,88.26
2022-08-20T03:18:47.818Z,87.97
2022-08-20T03:23:59.164Z,87.98
2022-08-20T03:29:06.316Z,87.91
2022-08-20T03:34:13.310Z,87.43
2022-08-20T03:39:20.311Z,87.43
2022-08-20T03:44:27.579Z,88.02
2022-08-20T03:49:34.429Z,88.59
2022-08-20T03:54:41.618Z,89.04
2022-08-20T03:59:51.954Z,89.48
2022-08-20T04:05:06.927Z,88.95
2022-08-20T04:10:14.789Z,89.20
2022-08-20T04:15:24.799Z,89.57
2022-08-20T04:20:32.122Z,89.98
2022-08-20T04:25:43.281Z,90.32
2022-08-20T04:30:52.218Z,90.68
2022-08-20T04:36:02.879Z,90.85
2022-08-20T04:41:09.863Z,91.18
2022-08-20T04:46:33.174Z,91.07
2022-08-20T04:51:40.021Z,90.94
2022-08-20T04:56:48.498Z,90.66
2022-08-20T05:01:55.605Z,90.24
2022-08-20T05:07:02.756Z,89.91
2022-08-20T05:12:10.857Z,89.75
2022-08-20T05:17:19.167Z,89.54
2022-08-20T05:22:27.714Z,89.57
2022-08-20T05:27:38.897Z,88.76
2022-08-20T05:32:47.558Z,88.39
2022-08-20T05:37:55.677Z,87.32
2022-08-20T05:43:04.856Z,86.35
2022-08-20T05:48:17.489Z,85.55
2022-08-20T05:53:26.287Z,84.58
2022-08-20T05:58:33.278Z,83.44
2022-08-20T06:03:58.199Z,82.49
2022-08-20T06:09:05.348Z,81.60
2022-08-20T06:14:12.441Z,81.50
2022-08-20T06:19:25.143Z,81.24
2022-08-20T06:24:33.555Z,80.30
2022-08-20T06:29:40.604Z,80.43
2022-08-20T06:34:50.955Z,79.76
2022-08-20T06:40:01.606Z,79.85
2022-08-20T06:45:10.414Z,79.81
2022-08-20T06:50:26.116Z,79.37
2022-08-20T06:55:33.266Z,78.86
2022-08-20T07:00:42.791Z,78.50
2022-08-20T07:05:50.881Z,78.30
2022-08-20T07:10:57.892Z,77.57
2022-08-20T07:16:05.399Z,76.86
2022-08-20T07:21:13.117Z,76.39
2022-08-20T07:26:20.685Z,76.37
2022-08-20T07:31:45.387Z,76.03
2022-08-20T07:36:55.260Z,76.32
2022-08-20T07:42:07.628Z,76.22
2022-08-20T07:47:14.630Z,75.70
2022-08-20T07:52:22.297Z,75.43
2022-08-20T07:57:29.308Z,74.80
2022-08-20T08:02:36.948Z,74.72
2022-08-20T08:07:44.583Z,74.43
2022-08-20T08:12:53.743Z,73.44
2022-08-20T08:18:09.773Z,73.19
2022-08-20T08:23:24.794Z,72.43
2022-08-20T08:28:41.527Z,72.53
2022-08-20T08:33:48.892Z,72.30
2022-08-20T08:38:56.875Z,72.43
2022-08-20T08:44:08.372Z,71.36
2022-08-20T08:49:19.791Z,68.33
2022-08-20T08:54:29.888Z,68.10
2022-08-20T08:59:52.092Z,66.62
2022-08-20T09:05:13.514Z,66.58
2022-08-20T09:10:23.305Z,66.45
2022-08-20T09:15:30.625Z,66.41
2022-08-20T09:20:37.636Z,66.46
2022-08-20T09:25:44.715Z,65.00
2022-08-20T09:30:54.091Z,65.74
2022-08-20T09:36:01.146Z,65.23
2022-08-20T09:41:08.475Z,64.54
2022-08-20T09:46:15.645Z,64.33
2022-08-20T09:51:23.136Z,63.70
2022-08-20T09:56:37.385Z,63.06
2022-08-20T10:01:44.417Z,62.41
2022-08-20T10:06:51.660Z,61.26
2022-08-20T10:11:58.732Z,60.57
2022-08-20T10:17:06.206Z,61.08
2022-08-20T10:22:13.383Z,60.74
2022-08-20T10:27:20.303Z,61.44
2022-08-20T10:32:28.840Z,60.90
2022-08-20T10:37:36.661Z,60.16
2022-08-20T10:42:43.565Z,59.29
2022-08-20T10:47:50.607Z,58.83
2022-08-20T10:52:57.707Z,58.98
2022-08-20T10:58:08.200Z,59.00
2022-08-20T11:03:18.416Z,58.85
2022-08-20T11:08:33.521Z,58.22
2022-08-20T11:13:41.834Z,57.10
2022-08-20T11:18:48.762Z,57.96
2022-08-20T11:23:58.089Z,57.22
2022-08-20T11:29:07.028Z,56.17
2022-08-20T11:34:14.034Z,56.08
2022-08-20T11:39:21.442Z,55.64
2022-08-20T11:44:28.862Z,55.16
2022-08-20T11:49:38.012Z,54.50
2022-08-20T11:54:45.014Z,54.89
2022-08-20T11:59:54.774Z,55.02
2022-08-20T12:05:01.707Z,55.33
2022-08-20T12:10:10.245Z,56.04
2022-08-20T12:15:17.605Z,56.67
2022-08-20T12:20:25.228Z,55.79
2022-08-20T12:25:32.263Z,55.99
2022-08-20T12:30:39.531Z,56.18
2022-08-20T12:35:46.498Z,56.99
2022-08-20T12:40:53.531Z,56.65
2022-08-20T12:46:00.564Z,56.31
2022-08-20T12:51:08.087Z,56.47
2022-08-20T12:56:15.055Z,57.06
2022-08-20T13:01:22.168Z,57.91
2022-08-20T13:06:29.480Z,58.71
2022-08-20T13:11:36.450Z,59.47
2022-08-20T13:16:43.354Z,59.90
2022-08-20T13:21:54.876Z,60.32
2022-08-20T13:27:10.036Z,61.19
2022-08-20T13:32:17.402Z,63.85
2022-08-20T13:37:27.042Z,64.99
2022-08-20T13:42:34.311Z,65.76
2022-08-20T13:47:42.867Z,64.37
2022-08-20T13:52:50.054Z,62.30
2022-08-20T13:57:58.492Z,60.27
2022-08-20T14:03:07.174Z,59.10
2022-08-20T14:08:16.712Z,60.56
2022-08-20T14:13:26.065Z,62.15
2022-08-20T14:18:33.354Z,63.98
2022-08-20T14:23:40.310Z,65.39
2022-08-20T14:28:47.130Z,67.02
2022-08-20T14:33:54.345Z,68.77
2022-08-20T14:39:01.654Z,70.61
2022-08-20T14:44:08.860Z,72.29
2022-08-20T14:49:16.876Z,73.74
2022-08-20T14:54:23.979Z,74.20
2022-08-20T14:59:31.794Z,74.46
2022-08-20T15:04:40.893Z,75.39
2022-08-20T15:09:48.271Z,75.81
2022-08-20T15:14:55.438Z,76.23
2022-08-20T15:20:11.024Z,76.92
2022-08-20T15:25:36.125Z,77.27
2022-08-20T15:30:44.706Z,77.84
2022-08-20T15:35:51.955Z,78.28
2022-08-20T15:41:01.118Z,78.60
2022-08-20T15:46:09.089Z,79.44
2022-08-20T15:51:27.687Z,79.08
2022-08-20T15:56:48.977Z,79.09
2022-08-20T16:02:05.267Z,78.63
2022-08-20T16:07:19.960Z,78.75
2022-08-20T16:12:35.091Z,79.54
2022-08-20T16:17:47.378Z,80.38
2022-08-20T16:22:54.568Z,81.29
2022-08-20T16:28:12.217Z,82.65
2022-08-20T16:33:26.953Z,83.17
2022-08-20T16:38:44.631Z,83.84
2022-08-20T16:43:57.667Z,84.41
2022-08-20T16:49:13.446Z,84.12
2022-08-20T16:54:28.305Z,84.54
2022-08-20T16:59:35.314Z,84.99
2022-08-20T17:04:58.780Z,84.67
2022-08-20T17:10:20.605Z,84.26
2022-08-20T17:15:31.353Z,84.00
2022-08-20T17:20:46.587Z,84.06
2022-08-20T17:26:01.724Z,84.16
2022-08-20T17:31:09.643Z,84.49
2022-08-20T17:36:26.261Z,84.81
2022-08-20T17:41:36.990Z,85.34
2022-08-20T17:46:46.562Z,85.63
2022-08-20T17:51:56.829Z,85.93
2022-08-20T17:57:08.197Z,86.31
2022-08-20T18:02:17.384Z,86.52
2022-08-20T18:07:28.640Z,86.06
2022-08-20T18:12:42.901Z,85.73
2022-08-20T18:18:14.054Z,85.05
2022-08-20T18:23:26.899Z,84.36
2022-08-20T18:28:38.708Z,83.85
2022-08-20T18:33:46.608Z,83.74
2022-08-20T18:39:06.203Z,84.58
2022-08-20T18:44:16.955Z,85.04
2022-08-20T18:49:32.178Z,85.26
2022-08-20T18:54:42.257Z,85.41
2022-08-20T18:59:53.551Z,85.69
2022-08-20T19:05:03.131Z,85.85
2022-08-20T19:10:32.821Z,86.03
2022-08-20T19:15:44.327Z,86.42
2022-08-20T19:20:57.159Z,86.75
2022-08-20T19:26:07.469Z,86.90
2022-08-20T19:31:33.870Z,86.95
2022-08-20T19:36:43.430Z,87.00
2022-08-20T19:41:55.531Z,86.94
2022-08-20T19:47:04.498Z,86.83
2022-08-20T19:52:22.550Z,86.92
2022-08-20T19:57:29.890Z,87.01
2022-08-20T20:02:37.360Z,87.01
2022-08-20T20:07:47.491Z,86.96
2022-08-20T20:12:54.645Z,86.92
2022-08-20T20:18:02.396Z,86.89
2022-08-20T20:23:19.241Z,86.94
2022-08-20T20:28:29.763Z,87.33
2022-08-20T20:33:44.003Z,87.30
2022-08-20T20:38:58.419Z,87.27
2022-08-20T20:44:08.198Z,87.13
2022-08-20T20:49:23.875Z,87.09
2022-08-20T20:54:41.599Z,86.84
2022-08-20T20:59:49.899Z,86.74
2022-08-20T21:04:58.576Z,86.63
2022-08-20T21:10:06.926Z,86.66
2022-08-20T21:15:14.804Z,86.64
2022-08-20T21:20:23.078Z,86.79
2022-08-20T21:25:33.332Z,86.97
2022-08-20T21:30:40.433Z,87.13
2022-08-20T21:35:47.610Z,87.25
2022-08-20T21:40:55.280Z,87.65
2022-08-20T21:46:06.242Z,88.04
2022-08-20T21:51:13.554Z,88.30
2022-08-20T21:56:20.975Z,88.76
2022-08-20T22:01:29.911Z,89.27
2022-08-20T22:06:37.226Z,89.70
2022-08-20T22:11:44.414Z,90.24
2022-08-20T22:16:51.411Z,90.41
2022-08-20T22:21:59.031Z,90.66
2022-08-20T22:27:08.638Z,91.03
2022-08-20T22:32:16.037Z,91.53
2022-08-20T22:37:32.559Z,91.89
2022-08-20T22:42:41.970Z,92.31
2022-08-20T22:47:49.194Z,92.58
2022-08-20T22:52:56.793Z,92.52
2022-08-20T22:58:05.130Z,92.75
2022-08-20T23:03:12.714Z,92.65
2022-08-20T23:08:19.937Z,92.67
2022-08-20T23:13:26.945Z,92.57
2022-08-20T23:18:34.349Z,92.57
2022-08-20T23:23:41.242Z,92.79
2022-08-20T23:28:48.281Z,92.94
2022-08-20T23:33:55.346Z,93.16
2022-08-20T23:39:02.353Z,93.26
2022-08-20T23:44:26.084Z,93.22
2022-08-20T23:49:34.252Z,93.28
2022-08-20T23:54:41.289Z,93.49
2022-08-20T23:59:48.359Z,93.44
